Observations for JERSEY AIRPORT, United Kingdom (EGJJ)

EGJJ 171920Z 28004KT CAVOK 17/13 Q1019  
EGJJ 171850Z 27005KT 9999 FEW024 18/13 Q1019
EGJJ 171820Z 27006KT 9999 FEW024 18/12 Q1018
EGJJ 171750Z 28006KT 9999 FEW024 19/13 Q1018
EGJJ 171720Z 27007KT 240V320 9999 FEW024 19/13 Q1018
EGJJ 171650Z 28008KT 9999 FEW024 19/13 Q1019
EGJJ 171620Z 28008KT 250V310 9999 FEW028 20/13 Q1019
EGJJ 171550Z 27008KT 9999 FEW028 20/13 Q1019
EGJJ 171520Z 28007KT 250V320 9999 FEW028 20/13 Q1019
EGJJ 171450Z 28006KT 240V300 9999 FEW011 19/13 Q1019
EGJJ 171420Z 27009KT 9999 FEW011 19/13 Q1019
EGJJ 171350Z 27009KT 240V310 9999 FEW011 19/14 Q1019
EGJJ 171320Z 27009KT 240V300 9999 FEW018 20/14 Q1019
EGJJ 171250Z 26009KT 230V290 9999 FEW018 19/14 Q1019
EGJJ 171220Z 24010KT 9999 FEW020 19/14 Q1019
EGJJ 171150Z 27007KT 220V310 9999 FEW023 19/13 Q1019
EGJJ 171120Z 25007KT 9999 FEW025 18/14 Q1019
EGJJ 171050Z 25008KT 9999 FEW009 18/15 Q1019
EGJJ 171020Z 27005KT 220V320 9999 FEW008 18/14 Q1019 REFC   
EGJJ 170950Z 27009KT 240V300 9999 FC FEW008 18/14 Q1019 
EGJJ 170920Z 26011KT 9999 FEW009 SCT026 18/14 Q1019 
EGJJ 170850Z 27011KT 9999 VCSH FEW013 SCT025 18/14 Q1019
EGJJ 170820Z 26008KT 9999 FEW025 19/15 Q1018
EGJJ 170750Z 26008KT 9999 FEW025 18/15 Q1018
EGJJ 170720Z 26009KT 9999 FEW025 17/15 Q1018
EGJJ 170650Z 27008KT 9999 FEW026 17/15 Q1018
EGJJ 170620Z 26006KT 9999 FEW009 17/16 Q1018
EGJJ 170550Z 26008KT 9999 FEW008 16/15 Q1018
EGJJ 170520Z 25005KT 9999 VCFG FEW028 16/15 Q1018   
EGJJ 170450Z 25003KT 9999 MIFG FEW028 15/14 Q1017   
EGJJ 170420Z AUTO 24004KT CAVOK 15/14 Q1017 
EGJJ 170350Z AUTO 29003KT 9999 FEW024/// 15/14 Q1017
EGJJ 170320Z AUTO 29004KT 9999 FEW021/// 15/14 Q1017
EGJJ 170250Z AUTO 30004KT CAVOK 15/14 Q1017 
EGJJ 170220Z AUTO 29005KT 9999 FEW039/// 15/14 Q1017
EGJJ 170150Z AUTO 29005KT 9999 SCT034/// 15/14 Q1017
EGJJ 170120Z AUTO 29006KT 9999 SCT026/// 16/14 Q1017
EGJJ 170050Z AUTO 28006KT CAVOK 16/14 Q1017 
EGJJ 170020Z AUTO 28005KT CAVOK 16/14 Q1017 
EGJJ 162350Z AUTO 27009KT CAVOK 16/14 Q1017 
EGJJ 162320Z AUTO 27010KT CAVOK 16/14 Q1017 
EGJJ 162250Z AUTO 27009KT CAVOK 16/14 Q1017 
EGJJ 162220Z AUTO 27008KT CAVOK 16/14 Q1017 
EGJJ 162150Z AUTO 27009KT 9999 FEW038/// 16/14 Q1017
EGJJ 162120Z AUTO 28008KT 9999 OVC035/// 17/14 Q1017
EGJJ 162050Z AUTO 28009KT 9999 OVC034/// 17/15 Q1017
EGJJ 162020Z AUTO 28011KT 9999 BKN035/// 17/15 Q1016
EGJJ 161950Z 29010KT 9999 SCT035 17/15 Q1016
EGJJ 161920Z 28008KT 9999 FEW030 17/16 Q1016
EGJJ 161850Z 28011KT 9999 FEW004 19/16 Q1016